Evenes, Norway

6:05 PM CEST on September 18, 2014 (GMT +0200)
Evenes | Change Station
CLOSE
Current Station
Airport
Location: Evenes,
Elevation: 85 ft
Nearby Weather Stations

Elev 85 ft 68.49 °N, 16.68 °E | Updated 15 minutes ago

Overcast
Overcast
46 °F
Feels Like 42 °F
N
8
Wind Variable Wind from NNW

Today
High -- | Low -- °F
--% Chance of Precip.
Yesterday
High -- | Low -- °F
Precip. -- in
6:18 AM 7:13 PM
Waning Crescent, 26% visible
Pressure 30.18 in
Visibility 6.2 miles
Clouds Overcast 2300 ft
Windchill 42 °F
Dew Point 36 °F
Humidity 66%
Rainfall 0.00 in
Snow Depth Not available.
UV 0 out of 12
Pollen Not available.
Air Quality Not available.
Flu Activity Not available.
METAR ENEV 181550Z 34007KT 9999 OVC023 08/02 Q1022 RMK

More Conditions Fewer Conditions

Pressure 30.18 in
Visibility 6.2 miles
Clouds Overcast 2300 ft
Windchill 42 °F
Dew Point 36 °F
Humidity 66%
Rainfall 0.00 in
Snow Depth Not available.
UV 0 out of 12
Pollen Not available.
Air Quality Not available.
Flu Activity Not available.
METAR ENEV 181550Z 34007KT 9999 OVC023 08/02 Q1022 RMK

More Conditions Fewer Conditions

10-Day Weather Forecast

Almanac

Astronomy

Sep. 18, 2014 Rise Set
Actual Time 6:18 AM CEST 7:13 PM CEST
Civil Twilight 5:20 AM CEST 8:11 PM CEST
Nautical Twilight 4:04 AM CEST 9:27 PM CEST
Astronomical Twilight 2:12 AM CEST 11:13 PM CEST
Moon 11:57 PM CEST 5:52 PM CEST
Length of Visible Light 14h 51m
Length of Day
12h 54m
Tomorrow will be 7m 56s shorter.
Waning Crescent, 26% of the Moon is Illuminated
Today
Waning Crescent
Sep 24
New
Oct 1
First Quarter
Oct 8
Full
Oct 15
Last Quarter

Today's Extremes

Country Highs Country Lows

Community

WunderPhotos

Upload Photos

1,754,390 photos uploaded!

Nearby

Snow Depth

Not available.

Earthquake Activity

City Distance Mag. Time & Date
No recent earthquake activity has been reported nearby.
Minimum magnitude displayed is 2.5.

Coastal Water Temperatures

Place Temperature
No Stations Reporting

Nearby Weather Stations